Time;durP1;ratioP1;P1;durP2;ratioP2;P2;SDS_P1;SDS_P2;PMS_P1;PMS_P2;Temp;Humidity;BMP_temperature;BMP_pressure;BME280_temperature;BME280_humidity;BME280_pressure;Samples;Min_cycle;Max_cycle;Signal;HPM_P1;HPM_P2
2023/10/11 00:03:06;;;;;;;10.82;7.05;;;16.40;99.90;;;;;;5085437;28;20044;-29
2023/10/11 00:05:41;;;;;;;10.75;7.38;;;16.40;99.90;;;;;;5083359;28;20407;-29
2023/10/11 00:08:18;;;;;;;11.73;7.43;;;16.40;99.90;;;;;;5077064;28;20064;-29
2023/10/11 00:10:55;;;;;;;11.68;7.50;;;16.30;99.90;;;;;;5076511;28;20037;-32
2023/10/11 00:13:23;;;;;;;13.23;7.25;;;16.30;99.90;;;;;;5058809;28;20526;-29
2023/10/11 00:15:50;;;;;;;9.93;7.68;;;16.30;99.90;;;;;;5088394;28;20059;-29
2023/10/11 00:18:26;;;;;;;10.80;7.40;;;16.30;99.90;;;;;;5091740;28;20036;-29
2023/10/11 00:20:52;;;;;;;14.90;8.73;;;16.30;99.90;;;;;;5089587;28;20068;-29
2023/10/11 00:23:26;;;;;;;12.50;7.90;;;16.30;99.90;;;;;;5089941;28;20510;-29
2023/10/11 00:26:00;;;;;;;14.38;8.20;;;16.30;99.90;;;;;;5084390;28;20037;-32
2023/10/11 00:28:26;;;;;;;11.25;7.53;;;16.30;99.90;;;;;;5089022;28;20039;-29
2023/10/11 00:30:57;;;;;;;11.02;7.65;;;16.30;99.90;;;;;;5085925;28;20032;-29
2023/10/11 00:33:24;;;;;;;12.40;8.23;;;16.30;99.90;;;;;;5067862;28;20169;-29
2023/10/11 00:35:50;;;;;;;13.60;8.52;;;16.30;99.90;;;;;;5086921;28;20448;-29
2023/10/11 00:38:20;;;;;;;14.38;9.05;;;16.20;99.90;;;;;;5094115;28;20410;-29
2023/10/11 00:43:53;;;;;;;12.35;8.07;;;16.20;99.90;;;;;;5086350;28;20161;-29
2023/10/11 00:46:22;;;;;;;17.60;9.65;;;16.30;99.90;;;;;;5087326;28;20100;-28
2023/10/11 00:48:55;;;;;;;11.90;8.18;;;16.20;99.90;;;;;;5086030;28;20491;-29
2023/10/11 00:51:26;;;;;;;13.98;9.32;;;16.20;99.90;;;;;;5087678;28;20036;-29
2023/10/11 00:53:52;;;;;;;13.13;8.52;;;16.20;99.90;;;;;;5087811;28;20070;-29
2023/10/11 00:56:20;;;;;;;11.25;9.00;;;16.20;99.90;;;;;;5084857;28;20032;-29
2023/10/11 00:58:47;;;;;;;15.00;9.35;;;16.20;99.90;;;;;;5090144;28;20044;-29
2023/10/11 01:01:14;;;;;;;13.10;9.23;;;16.20;99.90;;;;;;5070242;28;20040;-29
2023/10/11 01:03:41;;;;;;;16.88;10.30;;;16.20;99.90;;;;;;5089970;28;20487;-29
2023/10/11 01:06:10;;;;;;;13.48;9.18;;;16.20;99.90;;;;;;5083386;28;20399;-29
2023/10/11 01:08:40;;;;;;;12.77;8.90;;;16.20;99.90;;;;;;5088513;28;20383;-29
2023/10/11 01:11:11;;;;;;;14.10;10.02;;;16.20;99.90;;;;;;5090046;28;20162;-29
2023/10/11 01:13:41;;;;;;;15.23;9.43;;;16.10;99.90;;;;;;5086599;28;20124;-29
2023/10/11 01:16:11;;;;;;;13.63;9.65;;;16.10;99.90;;;;;;5085486;28;20055;-29
2023/10/11 01:18:40;;;;;;;11.77;9.25;;;16.10;99.90;;;;;;5086196;28;20036;-29
2023/10/11 01:21:07;;;;;;;15.52;10.13;;;16.00;99.90;;;;;;5086823;28;20039;-29
2023/10/11 01:23:34;;;;;;;13.68;9.98;;;16.00;99.90;;;;;;5085825;28;20040;-29
2023/10/11 01:26:07;;;;;;;19.58;10.07;;;16.10;99.90;;;;;;5069484;28;20043;-29
2023/10/11 01:28:41;;;;;;;16.52;10.65;;;16.00;99.90;;;;;;5082006;28;20165;-29
2023/10/11 01:31:11;;;;;;;14.85;9.73;;;16.00;99.90;;;;;;5084331;28;20064;-29
2023/10/11 01:33:41;;;;;;;18.38;10.02;;;16.00;99.90;;;;;;5087970;28;20032;-29
2023/10/11 01:36:09;;;;;;;15.95;10.40;;;16.00;99.90;;;;;;5086607;28;20048;-29
2023/10/11 01:38:49;;;;;;;16.42;10.07;;;16.00;99.90;;;;;;5085910;28;20074;-29
2023/10/11 01:41:25;;;;;;;12.38;9.38;;;15.90;99.90;;;;;;5076757;28;20040;-29
2023/10/11 01:43:51;;;;;;;13.40;10.10;;;15.90;99.90;;;;;;5080121;28;20395;-29
2023/10/11 01:46:21;;;;;;;16.00;10.15;;;15.90;99.90;;;;;;5083001;28;20043;-29
2023/10/11 01:48:47;;;;;;;14.77;10.80;;;15.90;99.90;;;;;;5085490;28;20044;-29
2023/10/11 01:51:21;;;;;;;15.43;9.65;;;15.80;99.90;;;;;;5084225;28;20510;-29
2023/10/11 01:53:46;;;;;;;14.20;10.35;;;15.80;99.90;;;;;;5086117;28;20044;-29
2023/10/11 01:56:13;;;;;;;18.02;10.48;;;15.80;99.90;;;;;;5080533;28;20028;-29
2023/10/11 01:58:43;;;;;;;14.73;10.27;;;15.80;99.90;;;;;;5086874;28;20044;-29
2023/10/11 02:01:22;;;;;;;15.48;10.77;;;15.80;99.90;;;;;;5084828;28;20036;-29
2023/10/11 02:03:53;;;;;;;14.50;10.25;;;15.80;99.90;;;;;;5087586;28;20410;-29
2023/10/11 02:06:20;;;;;;;16.50;10.85;;;15.80;99.90;;;;;;5085880;28;20039;-29
2023/10/11 02:08:46;;;;;;;13.77;10.25;;;15.80;99.90;;;;;;5079377;28;20040;-29
2023/10/11 02:11:14;;;;;;;14.13;10.98;;;15.80;99.90;;;;;;5079224;28;20072;-29
2023/10/11 02:13:41;;;;;;;14.98;11.65;;;15.70;99.90;;;;;;5087478;28;20414;-29
2023/10/11 02:16:11;;;;;;;14.68;11.30;;;15.80;99.90;;;;;;5079099;28;20047;-29
2023/10/11 02:18:37;;;;;;;11.73;10.48;;;15.70;99.90;;;;;;5083471;28;20044;-29
2023/10/11 02:21:06;;;;;;;16.20;11.73;;;15.80;99.90;;;;;;5084370;28;20036;-29
2023/10/11 02:23:42;;;;;;;17.63;11.63;;;15.70;99.90;;;;;;5080710;28;20082;-29
2023/10/11 02:26:14;;;;;;;17.05;11.07;;;15.70;99.90;;;;;;5084052;28;20037;-29
2023/10/11 02:28:40;;;;;;;18.23;11.93;;;15.70;99.90;;;;;;5083322;28;20042;-29
2023/10/11 02:31:07;;;;;;;16.17;11.35;;;15.70;99.90;;;;;;5081757;28;20032;-29
2023/10/11 02:33:33;;;;;;;16.70;11.75;;;15.70;99.90;;;;;;5083356;28;20032;-29
2023/10/11 02:36:17;;;;;;;14.38;11.27;;;15.70;99.90;;;;;;5078683;28;20039;-29
2023/10/11 02:38:54;;;;;;;20.42;11.15;;;15.60;99.90;;;;;;5083926;28;20534;-28
2023/10/11 02:41:26;;;;;;;18.00;11.85;;;15.60;99.90;;;;;;5078135;28;20040;-29
2023/10/11 02:43:57;;;;;;;18.20;11.60;;;15.60;99.90;;;;;;5088534;28;20120;-29
2023/10/11 02:46:25;;;;;;;13.30;10.93;;;15.50;99.90;;;;;;5080597;28;20045;-29
2023/10/11 02:49:05;;;;;;;15.93;10.88;;;15.50;99.90;;;;;;5086062;28;20043;-32
2023/10/11 02:51:33;;;;;;;18.67;11.27;;;15.50;99.90;;;;;;5080864;28;20043;-29
2023/10/11 02:54:04;;;;;;;18.55;11.98;;;15.50;99.90;;;;;;5086772;28;20032;-29
2023/10/11 02:56:39;;;;;;;19.20;12.10;;;15.40;99.90;;;;;;5084479;28;20043;-28
2023/10/11 02:59:07;;;;;;;13.45;11.02;;;15.40;99.90;;;;;;5086134;28;20074;-29
2023/10/11 03:01:32;;;;;;;19.48;11.60;;;15.40;99.90;;;;;;5088576;28;20118;-29
2023/10/11 03:04:01;;;;;;;18.65;11.13;;;15.40;99.90;;;;;;5088039;28;20170;-29
2023/10/11 03:06:27;;;;;;;15.75;10.98;;;15.40;99.90;;;;;;5089699;28;20043;-29
2023/10/11 03:08:53;;;;;;;15.88;11.63;;;15.40;99.90;;;;;;5080824;28;20516;-29
2023/10/11 03:11:18;;;;;;;20.15;12.00;;;15.40;99.90;;;;;;5079444;28;20044;-29
2023/10/11 03:13:45;;;;;;;22.45;12.35;;;15.40;99.90;;;;;;5086135;28;20036;-28
2023/10/11 03:16:17;;;;;;;17.92;12.35;;;15.30;99.90;;;;;;5079438;28;20044;-29
2023/10/11 03:18:46;;;;;;;21.60;12.02;;;15.30;99.90;;;;;;5080714;28;20042;-29
2023/10/11 03:21:17;;;;;;;18.38;12.02;;;15.30;99.90;;;;;;5065708;28;20105;-29
2023/10/11 03:23:54;;;;;;;18.05;12.25;;;15.30;99.90;;;;;;5085433;28;20031;-29
2023/10/11 03:29:03;;;;;;;15.52;11.73;;;15.40;99.90;;;;;;5077418;28;21372;-87
2023/10/11 03:31:33;;;;;;;18.30;11.18;;;15.30;99.90;;;;;;5058515;28;20113;-87
2023/10/11 03:34:00;;;;;;;17.85;12.20;;;15.20;99.90;;;;;;5066852;28;20039;-87
2023/10/11 03:36:43;;;;;;;17.95;12.38;;;15.20;99.90;;;;;;5042622;28;20032;-88
2023/10/11 03:39:09;;;;;;;18.57;13.07;;;15.20;99.90;;;;;;5068039;28;20486;-88
2023/10/11 03:41:46;;;;;;;18.52;11.40;;;15.20;99.90;;;;;;5051594;28;20804;-88
2023/10/11 03:44:20;;;;;;;19.80;11.93;;;15.20;99.90;;;;;;5064537;28;20115;-88
2023/10/11 03:46:48;;;;;;;17.55;12.05;;;15.10;99.90;;;;;;5046544;28;20501;-88
2023/10/11 03:51:43;;;;;;;17.23;10.98;;;15.10;99.90;;;;;;5068803;28;20109;-88
2023/10/11 03:54:18;;;;;;;15.00;11.80;;;15.00;99.90;;;;;;5066562;28;20041;-88
2023/10/11 03:56:51;;;;;;;19.60;11.82;;;15.00;99.90;;;;;;5050620;28;20038;-88
2023/10/11 03:59:17;;;;;;;18.65;12.63;;;15.00;99.90;;;;;;5046507;28;20098;-88
2023/10/11 04:01:44;;;;;;;18.05;12.02;;;15.00;99.90;;;;;;5039463;28;20036;-88
2023/10/11 04:04:09;;;;;;;19.23;11.45;;;15.00;99.90;;;;;;5060740;28;20093;-88
2023/10/11 04:06:35;;;;;;;18.73;11.38;;;15.00;99.90;;;;;;5049952;28;20067;-88
2023/10/11 04:09:02;;;;;;;15.55;12.32;;;15.10;99.90;;;;;;5075595;28;20049;-88
2023/10/11 04:11:47;;;;;;;18.48;10.88;;;15.10;99.90;;;;;;5068372;28;20075;-88
2023/10/11 04:14:23;;;;;;;15.18;11.05;;;15.10;99.90;;;;;;5051155;28;20028;-88
2023/10/11 04:16:52;;;;;;;18.08;11.32;;;15.10;99.90;;;;;;5065639;28;20036;-87
2023/10/11 04:19:21;;;;;;;18.05;11.38;;;15.20;99.90;;;;;;5053543;28;20414;-88
2023/10/11 04:24:19;;;;;;;16.00;11.35;;;15.20;99.90;;;;;;5065139;28;20102;-88
2023/10/11 04:26:58;;;;;;;17.55;11.23;;;15.20;99.90;;;;;;5069788;28;20040;-88
2023/10/11 04:29:31;;;;;;;17.50;11.77;;;15.20;99.90;;;;;;5068584;28;20040;-88
2023/10/11 04:34:24;;;;;;;15.13;10.68;;;15.20;99.90;;;;;;5066142;28;20036;-88
2023/10/11 04:36:55;;;;;;;19.92;11.05;;;15.30;99.90;;;;;;5061821;28;20036;-88
2023/10/11 04:39:27;;;;;;;17.55;10.50;;;15.30;99.90;;;;;;5067480;28;20413;-87
2023/10/11 04:42:03;;;;;;;17.20;11.23;;;15.30;99.90;;;;;;5054555;28;20055;-87
2023/10/11 04:44:42;;;;;;;17.80;11.23;;;15.30;99.90;;;;;;5054796;28;20043;-87
2023/10/11 04:47:08;;;;;;;18.40;11.00;;;15.30;99.90;;;;;;5065388;28;20157;-87
2023/10/11 04:49:34;;;;;;;15.60;11.15;;;15.30;99.90;;;;;;5069813;28;20058;-87
2023/10/11 04:52:00;;;;;;;18.08;10.77;;;15.30;99.90;;;;;;5069534;28;20374;-88
2023/10/11 04:54:42;;;;;;;17.55;11.20;;;15.30;99.90;;;;;;5064914;28;20040;-86
2023/10/11 04:57:08;;;;;;;17.23;11.30;;;15.30;99.90;;;;;;5047541;28;20094;-88
2023/10/11 05:02:02;;;;;;;11.93;10.63;;;15.30;99.90;;;;;;5064702;28;20040;-87
2023/10/11 05:04:34;;;;;;;19.25;11.70;;;15.30;99.90;;;;;;5046701;28;20051;-87
2023/10/11 05:07:09;;;;;;;16.15;11.63;;;15.30;99.90;;;;;;5043666;28;20126;-87
2023/10/11 05:09:39;;;;;;;18.58;11.93;;;15.30;99.90;;;;;;5047225;28;20458;-88
2023/10/11 05:12:10;;;;;;;19.92;11.88;;;15.40;99.90;;;;;;5069198;28;20795;-88
2023/10/11 05:14:40;;;;;;;17.88;12.07;;;15.40;99.90;;;;;;5052215;28;20052;-87
2023/10/11 05:22:49;;;;;;;16.35;12.05;;;15.40;99.90;;;;;;5059848;28;20867;-88
2023/10/11 05:27:49;;;;;;;22.35;12.57;;;15.30;99.90;;;;;;5057884;28;20059;-88
2023/10/11 05:32:58;;;;;;;17.83;11.35;;;15.30;99.90;;;;;;5058306;28;20150;-87
2023/10/11 05:51:39;;;;;;;20.23;13.25;;;15.20;99.90;;;;;;5059316;28;20044;-86
2023/10/11 05:54:09;;;;;;;23.60;14.77;;;15.30;99.90;;;;;;5062717;28;20146;-86
2023/10/11 05:56:38;;;;;;;22.20;14.07;;;15.20;99.90;;;;;;5052807;28;20040;-87
2023/10/11 05:59:05;;;;;;;21.55;13.98;;;15.20;99.90;;;;;;5063294;28;20047;-87
2023/10/11 06:01:31;;;;;;;22.98;14.60;;;15.20;99.90;;;;;;5062778;28;20149;-87
2023/10/11 06:03:57;;;;;;;24.23;14.25;;;15.20;99.90;;;;;;5068520;28;20048;-86
2023/10/11 06:06:23;;;;;;;23.10;15.57;;;15.10;99.90;;;;;;5067601;28;20036;-87
2023/10/11 06:08:54;;;;;;;23.35;14.32;;;15.10;99.90;;;;;;5063841;28;20481;-88
2023/10/11 06:11:20;;;;;;;21.45;14.00;;;15.10;99.90;;;;;;5063193;28;20662;-88
2023/10/11 06:13:47;;;;;;;21.27;14.20;;;15.10;99.90;;;;;;5065509;28;20410;-88
2023/10/11 06:16:14;;;;;;;22.23;13.40;;;15.20;99.90;;;;;;5064094;28;20040;-87
2023/10/11 06:18:42;;;;;;;27.50;14.85;;;15.20;99.90;;;;;;5060371;28;20426;-87
2023/10/11 06:21:30;;;;;;;23.75;15.38;;;15.20;99.90;;;;;;5065517;28;20052;-88
2023/10/11 06:23:57;;;;;;;27.23;14.88;;;15.20;99.90;;;;;;5045132;28;20068;-85
2023/10/11 06:27:53;;;;;;;20.02;14.57;;;15.20;99.90;;;;;;5048953;28;20071;-86
2023/10/11 06:29:15;;;;;;;24.40;15.10;;;15.30;99.90;;;;;;5059808;28;20075;-86
2023/10/11 06:31:43;;;;;;;20.38;15.32;;;15.30;99.90;;;;;;5037651;28;20032;-86
2023/10/11 06:34:15;;;;;;;21.05;15.25;;;15.30;99.90;;;;;;5056348;28;20041;-86
2023/10/11 06:36:50;;;;;;;25.65;15.65;;;15.40;99.90;;;;;;5056109;28;20067;-86
2023/10/11 06:42:06;;;;;;;20.38;14.85;;;15.40;99.90;;;;;;5086583;28;20494;-86
2023/10/11 06:44:34;;;;;;;22.52;15.55;;;15.50;99.90;;;;;;5064374;28;20051;-86
2023/10/11 06:47:03;;;;;;;23.48;15.52;;;15.50;99.90;;;;;;5053843;28;20036;-86
2023/10/11 06:49:40;;;;;;;22.75;15.30;;;15.50;99.90;;;;;;5073710;28;20055;-86
2023/10/11 06:52:15;;;;;;;22.83;15.20;;;15.60;99.90;;;;;;5074184;28;20036;-86
2023/10/11 06:55:07;;;;;;;26.27;15.48;;;15.60;99.90;;;;;;5072501;28;20062;-86
2023/10/11 06:57:38;;;;;;;22.35;15.73;;;15.60;99.90;;;;;;5094026;28;20024;-87
2023/10/11 07:00:20;;;;;;;24.98;16.17;;;15.60;99.90;;;;;;5080008;28;20136;-87
2023/10/11 07:02:52;;;;;;;23.60;15.52;;;15.70;99.90;;;;;;5091912;28;20043;-86
2023/10/11 07:05:19;;;;;;;23.90;15.02;;;15.70;99.90;;;;;;5097189;28;20042;-87
2023/10/11 07:07:49;;;;;;;23.08;14.90;;;15.80;99.90;;;;;;5087237;28;20040;-86
2023/10/11 07:10:28;;;;;;;21.20;15.38;;;15.70;99.90;;;;;;5061841;28;20037;-87
2023/10/11 07:13:04;;;;;;;23.83;15.50;;;15.90;99.90;;;;;;5041589;28;20039;-86
2023/10/11 07:15:46;;;;;;;23.60;14.75;;;15.80;99.90;;;;;;5062748;28;20490;-86
2023/10/11 07:18:25;;;;;;;26.95;15.77;;;15.90;99.90;;;;;;5050026;28;20495;-86
2023/10/11 07:20:58;;;;;;;26.38;15.45;;;16.00;99.90;;;;;;5050713;28;20720;-86
2023/10/11 07:23:35;;;;;;;25.83;17.00;;;16.00;99.90;;;;;;5058418;28;20482;-86
2023/10/11 07:26:23;;;;;;;23.70;15.38;;;16.00;99.90;;;;;;5037378;28;20113;-87
2023/10/11 07:28:51;;;;;;;23.55;16.27;;;16.00;99.90;;;;;;5060958;28;20051;-86
2023/10/11 07:31:33;;;;;;;29.50;16.95;;;16.00;99.90;;;;;;5047579;28;20037;-86
2023/10/11 07:34:05;;;;;;;27.83;17.00;;;16.10;99.90;;;;;;5038286;28;20573;-86
2023/10/11 07:36:31;;;;;;;24.23;15.82;;;16.10;99.90;;;;;;5057364;28;20078;-86
2023/10/11 07:39:00;;;;;;;27.58;16.92;;;16.10;99.90;;;;;;5041916;28;20037;-86
2023/10/11 07:41:28;;;;;;;28.60;18.10;;;16.20;99.90;;;;;;5038176;28;20029;-86
2023/10/11 07:43:58;;;;;;;27.10;17.75;;;16.20;99.90;;;;;;5041788;28;20032;-87
2023/10/11 07:46:24;;;;;;;28.67;18.95;;;16.20;99.90;;;;;;5044240;28;20075;-87
2023/10/11 07:49:01;;;;;;;26.80;18.48;;;16.20;99.90;;;;;;5037084;28;20052;-86
2023/10/11 07:51:30;;;;;;;28.02;18.10;;;16.30;99.90;;;;;;5048185;28;20121;-86
2023/10/11 07:53:56;;;;;;;31.63;19.02;;;16.40;99.90;;;;;;5059942;28;20065;-86
2023/10/11 07:56:22;;;;;;;31.63;18.63;;;16.40;99.90;;;;;;5062078;28;20043;-86
2023/10/11 07:58:48;;;;;;;38.67;20.73;;;16.40;99.90;;;;;;5068610;28;20040;-87
2023/10/11 08:03:59;;;;;;;42.08;21.42;;;16.50;99.90;;;;;;5051204;28;20037;-87
2023/10/11 08:06:25;;;;;;;39.50;21.05;;;16.50;99.90;;;;;;5045226;28;20039;-87
2023/10/11 08:09:00;;;;;;;36.55;20.98;;;16.50;99.90;;;;;;5038314;28;20049;-87
2023/10/11 08:11:36;;;;;;;50.00;22.85;;;16.50;99.90;;;;;;5045462;28;20120;-86
2023/10/11 08:14:10;;;;;;;39.28;22.30;;;16.60;99.90;;;;;;5059705;28;20044;-87
2023/10/11 08:16:36;;;;;;;34.60;21.70;;;16.60;99.90;;;;;;5039084;28;20165;-88
2023/10/11 08:19:01;;;;;;;37.47;22.20;;;16.70;99.90;;;;;;5063312;28;20595;-87
2023/10/11 08:21:30;;;;;;;32.65;21.35;;;16.70;99.90;;;;;;5041975;28;20448;-86
2023/10/11 08:23:56;;;;;;;33.75;21.70;;;16.70;99.90;;;;;;5046589;28;20196;-86
2023/10/11 08:26:24;;;;;;;36.60;22.17;;;16.70;99.90;;;;;;5056548;28;20033;-86
2023/10/11 08:28:51;;;;;;;39.40;22.10;;;16.70;99.90;;;;;;5064805;28;20169;-87
2023/10/11 08:31:44;;;;;;;36.67;22.33;;;16.70;99.90;;;;;;5036647;28;20130;-86
2023/10/11 08:34:07;;;;;;;32.63;22.45;;;16.70;99.90;;;;;;5055580;28;20037;-86
2023/10/11 08:36:35;;;;;;;40.03;24.63;;;16.70;99.90;;;;;;5045709;28;20466;-86
2023/10/11 08:39:06;;;;;;;33.35;21.67;;;16.80;99.90;;;;;;5057508;28;20043;-86
2023/10/11 08:41:35;;;;;;;42.80;23.08;;;16.70;99.90;;;;;;5063201;28;20379;-88
2023/10/11 08:44:15;;;;;;;38.85;22.08;;;16.80;99.90;;;;;;5042209;28;20152;-87
2023/10/11 08:46:48;;;;;;;35.45;22.10;;;16.80;99.90;;;;;;5053535;28;20082;-87
2023/10/11 08:49:14;;;;;;;34.17;23.48;;;16.80;99.90;;;;;;5053773;28;20372;-87
2023/10/11 08:51:44;;;;;;;37.90;22.40;;;16.80;99.90;;;;;;5062313;28;20043;-87
2023/10/11 08:54:25;;;;;;;37.00;21.58;;;16.80;99.90;;;;;;5063337;28;20119;-87
2023/10/11 08:56:54;;;;;;;37.22;22.98;;;16.80;99.90;;;;;;5045532;28;20044;-86
2023/10/11 08:59:27;;;;;;;36.75;22.90;;;16.80;99.90;;;;;;5062124;28;20028;-86
2023/10/11 09:01:54;;;;;;;37.65;22.92;;;16.80;99.90;;;;;;5102351;28;20020;-86
2023/10/11 09:04:26;;;;;;;41.55;23.20;;;16.80;99.90;;;;;;5070548;28;20047;-86
2023/10/11 09:06:57;;;;;;;39.40;23.40;;;16.80;99.90;;;;;;5053556;28;20037;-85
2023/10/11 09:09:39;;;;;;;40.58;24.40;;;16.80;99.90;;;;;;5063180;28;20044;-87
2023/10/11 09:12:24;;;;;;;39.72;24.60;;;16.70;99.90;;;;;;5051493;28;20490;-87
2023/10/11 09:14:58;;;;;;;38.63;24.13;;;16.70;99.90;;;;;;5061799;28;20060;-86
2023/10/11 09:17:25;;;;;;;37.80;22.88;;;16.70;99.90;;;;;;5045460;28;20513;-87
2023/10/11 09:19:53;;;;;;;42.70;23.75;;;16.70;99.90;;;;;;5055877;28;20028;-86
2023/10/11 09:22:19;;;;;;;38.90;23.58;;;16.70;99.90;;;;;;5046874;28;20368;-86
2023/10/11 09:25:05;;;;;;;37.95;23.98;;;16.70;99.90;;;;;;5126543;22;20651;-87
2023/10/11 09:28:11;;;;;;;35.10;23.25;;;16.80;99.90;;;;;;5046678;28;20055;-85
2023/10/11 09:30:44;;;;;;;37.03;23.33;;;16.80;99.90;;;;;;5062573;28;20037;-86
2023/10/11 09:33:17;;;;;;;;;;;16.80;99.90;;;;;;5053040;28;20079;-86
2023/10/11 09:35:48;;;;;;;39.95;22.70;;;16.80;99.90;;;;;;5062980;28;19948;-86
2023/10/11 09:38:19;;;;;;;37.10;22.80;;;16.80;99.90;;;;;;5047189;28;20048;-85
2023/10/11 09:40:57;;;;;;;44.47;24.00;;;16.70;99.90;;;;;;5049878;28;20132;-86
2023/10/11 09:43:35;;;;;;;37.72;22.65;;;16.80;99.90;;;;;;5047282;28;20300;-87
2023/10/11 09:46:03;;;;;;;39.13;24.58;;;16.80;99.90;;;;;;5069704;28;20036;-86
2023/10/11 09:48:36;;;;;;;38.88;23.67;;;16.90;99.90;;;;;;5048723;28;20072;-86
2023/10/11 09:51:14;;;;;;;36.73;23.90;;;17.00;99.90;;;;;;5063601;28;20468;-86
2023/10/11 09:53:53;;;;;;;36.60;22.00;;;17.00;99.90;;;;;;5067375;28;20298;-86
2023/10/11 09:56:48;;;;;;;31.85;20.90;;;17.00;99.90;;;;;;5065455;28;20052;-86
2023/10/11 09:59:51;;;;;;;35.22;20.88;;;17.10;99.90;;;;;;5069742;28;20089;-86
2023/10/11 10:02:38;;;;;;;36.17;21.13;;;17.10;99.90;;;;;;5050205;28;20387;-87
2023/10/11 10:05:15;;;;;;;32.20;20.20;;;17.20;99.90;;;;;;5061695;28;20071;-86
2023/10/11 10:08:24;;;;;;;28.80;18.15;;;17.10;99.90;;;;;;5038485;28;20123;-86
2023/10/11 10:10:56;;;;;;;29.10;18.20;;;17.20;99.90;;;;;;5068654;28;20503;-87
2023/10/11 10:14:22;;;;;;;32.75;19.48;;;17.20;99.90;;;;;;5068386;28;20039;-86
2023/10/11 10:17:10;;;;;;;30.45;17.88;;;17.30;99.90;;;;;;5052441;28;20074;-86
2023/10/11 10:19:43;;;;;;;30.33;17.55;;;17.30;99.90;;;;;;5046765;28;20044;-87
2023/10/11 10:22:27;;;;;;;33.47;17.60;;;17.30;99.90;;;;;;5048294;28;20171;-86
2023/10/11 10:25:19;;;;;;;26.77;16.23;;;17.30;99.90;;;;;;5064791;28;20305;-86
2023/10/11 10:27:46;;;;;;;24.10;16.08;;;17.30;99.90;;;;;;5051687;28;20541;-86
2023/10/11 10:30:28;;;;;;;26.08;17.08;;;17.30;99.90;;;;;;5052593;28;20040;-87
2023/10/11 10:33:19;;;;;;;31.92;18.50;;;17.40;99.90;;;;;;5053200;28;20051;-86
2023/10/11 10:35:47;;;;;;;29.65;18.52;;;17.50;99.90;;;;;;5061025;28;20505;-86
2023/10/11 10:38:22;;;;;;;26.90;19.40;;;17.60;99.90;;;;;;5064047;28;20106;-86
2023/10/11 10:41:22;;;;;;;31.05;19.02;;;17.70;99.90;;;;;;5060263;28;20051;-85
2023/10/11 10:44:10;;;;;;;36.28;17.60;;;17.70;99.90;;;;;;5057098;28;20032;-88
2023/10/11 10:46:54;;;;;;;26.42;17.10;;;17.80;99.90;;;;;;5069252;28;20101;-86
2023/10/11 10:49:29;;;;;;;25.65;15.93;;;17.80;99.90;;;;;;5070027;28;20102;-87
2023/10/11 10:52:00;;;;;;;23.58;15.65;;;18.00;99.90;;;;;;5066262;28;20074;-86
2023/10/11 10:54:32;;;;;;;27.88;15.15;;;18.10;99.90;;;;;;5064808;28;20043;-81
2023/10/11 10:56:58;;;;;;;22.73;15.07;;;18.10;99.90;;;;;;5068501;28;20043;-82
2023/10/11 10:59:26;;;;;;;21.52;14.15;;;18.20;99.90;;;;;;5054859;28;20414;-86
2023/10/11 11:01:55;;;;;;;21.02;13.57;;;18.30;99.90;;;;;;5047372;28;20040;-85
2023/10/11 11:04:28;;;;;;;23.98;13.38;;;18.50;99.90;;;;;;5063648;28;20040;-83
2023/10/11 11:06:55;;;;;;;;;;;18.50;99.90;;;;;;5045724;28;20050;-85
2023/10/11 11:09:27;;;;;;;22.60;11.98;;;18.60;99.90;;;;;;5047511;28;19920;-86
2023/10/11 11:19:34;;;;;;;14.65;9.93;;;19.10;99.90;;;;;;5056588;22;20101;-40
2023/10/11 11:22:12;;;;;;;17.20;10.57;;;19.50;99.90;;;;;;5080694;28;20036;-39
2023/10/11 11:24:41;;;;;;;13.38;8.52;;;19.90;99.90;;;;;;5077327;28;20078;-38
2023/10/11 11:27:27;;;;;;;13.40;8.50;;;20.10;99.90;;;;;;5083045;28;20036;-37
2023/10/11 11:30:04;;;;;;;14.38;8.32;;;20.30;99.90;;;;;;5084566;28;20044;-37
2023/10/11 11:32:37;;;;;;;10.23;7.93;;;20.40;99.90;;;;;;5083111;28;20075;-41
2023/10/11 11:35:10;;;;;;;10.40;7.45;;;20.40;99.90;;;;;;5085982;28;20043;-40
2023/10/11 11:38:01;;;;;;;14.38;8.63;;;20.30;99.90;;;;;;5093786;28;20449;-37
2023/10/11 11:40:27;;;;;;;15.85;7.90;;;20.30;99.90;;;;;;5085251;28;20036;-40
2023/10/11 11:42:53;;;;;;;11.38;7.65;;;20.10;99.90;;;;;;5084674;28;20036;-40
2023/10/11 11:45:25;;;;;;;14.30;7.38;;;19.90;99.90;;;;;;5082314;28;20051;-40
2023/10/11 11:47:57;;;;;;;12.43;7.18;;;19.80;99.90;;;;;;5065357;28;20122;-39
2023/10/11 11:50:31;;;;;;;11.63;6.78;;;19.70;99.90;;;;;;5079926;28;20036;-39
2023/10/11 11:52:57;;;;;;;10.85;6.45;;;19.60;99.90;;;;;;5079262;28;20132;-37
2023/10/11 11:55:23;;;;;;;13.60;7.18;;;19.60;99.90;;;;;;5078915;28;20060;-40
2023/10/11 11:57:50;;;;;;;9.30;6.35;;;19.60;99.90;;;;;;5081345;28;20048;-39
2023/10/11 12:02:47;;;;;;;12.68;5.72;;;19.70;99.90;;;;;;5087032;28;20390;-37
2023/10/11 12:05:13;;;;;;;8.90;5.45;;;19.70;99.90;;;;;;5077413;28;20116;-41
2023/10/11 12:07:39;;;;;;;9.30;5.25;;;19.70;99.90;;;;;;5085201;28;20097;-38
2023/10/11 12:10:23;;;;;;;8.75;5.18;;;19.80;99.90;;;;;;5083449;28;20037;-37
2023/10/11 12:12:52;;;;;;;8.40;5.22;;;19.90;99.90;;;;;;5082466;28;20040;-39
2023/10/11 12:15:19;;;;;;;7.47;5.38;;;19.90;99.90;;;;;;5089247;28;20549;-38
2023/10/11 12:17:53;;;;;;;7.85;5.38;;;19.90;99.90;;;;;;5085517;28;20058;-39
2023/10/11 12:20:19;;;;;;;12.18;5.80;;;19.90;99.90;;;;;;5091572;28;20110;-40
2023/10/11 12:22:45;;;;;;;9.25;5.40;;;19.90;99.90;;;;;;5088034;28;20127;-38
2023/10/11 12:25:13;;;;;;;9.32;5.55;;;19.90;99.90;;;;;;5089351;28;20522;-37
2023/10/11 12:27:42;;;;;;;11.60;5.72;;;19.90;99.90;;;;;;5083317;28;20463;-40
2023/10/11 12:30:22;;;;;;;9.30;5.38;;;19.80;99.90;;;;;;5082661;28;20059;-39
2023/10/11 12:32:49;;;;;;;12.60;6.40;;;19.80;99.90;;;;;;5087731;28;20039;-36
2023/10/11 12:35:15;;;;;;;8.45;5.70;;;19.80;99.90;;;;;;5088205;28;20051;-37
2023/10/11 12:37:41;;;;;;;11.15;5.57;;;19.90;99.90;;;;;;5083606;28;20111;-40
2023/10/11 12:40:21;;;;;;;10.07;5.20;;;20.10;99.90;;;;;;5081688;28;20097;-37
2023/10/11 12:42:48;;;;;;;8.52;5.13;;;20.60;99.90;;;;;;5089844;28;20487;-39
2023/10/11 12:45:17;;;;;;;9.55;4.72;;;20.90;99.90;;;;;;5088069;28;20059;-40
2023/10/11 12:47:46;;;;;;;10.82;5.13;;;21.00;99.90;;;;;;5064432;28;20425;-38
2023/10/11 12:50:17;;;;;;;13.05;5.18;;;21.20;99.90;;;;;;5088826;28;20119;-37
2023/10/11 12:52:45;;;;;;;6.20;5.38;;;21.10;99.90;;;;;;5089711;28;20089;-36
2023/10/11 12:55:12;;;;;;;11.30;5.03;;;21.00;99.90;;;;;;5088097;28;20075;-36
2023/10/11 12:57:39;;;;;;;10.20;6.30;;;20.80;99.90;;;;;;5084717;28;20035;-38
2023/10/11 13:02:58;;;;;;;9.10;5.78;;;20.60;99.90;;;;;;5072260;28;20525;-38
2023/10/11 13:05:28;;;;;;;10.77;5.85;;;20.50;99.90;;;;;;5076969;28;20051;-41
2023/10/11 13:07:54;;;;;;;9.95;6.70;;;20.70;99.90;;;;;;5083144;28;20038;-40
2023/10/11 13:10:23;;;;;;;11.50;6.43;;;20.90;99.90;;;;;;5084989;28;20039;-40
2023/10/11 13:12:53;;;;;;;9.80;5.78;;;20.90;99.90;;;;;;5085405;28;20762;-40
2023/10/11 13:15:21;;;;;;;10.57;5.85;;;20.70;99.90;;;;;;5087070;28;20031;-40
2023/10/11 13:17:47;;;;;;;8.18;5.75;;;20.50;99.90;;;;;;5087072;28;20041;-37
2023/10/11 13:20:18;;;;;;;14.43;7.32;;;20.40;99.90;;;;;;5082240;28;20034;-38
2023/10/11 13:22:49;;;;;;;10.57;7.32;;;20.30;99.90;;;;;;5087170;28;20096;-39
2023/10/11 13:25:25;;;;;;;12.57;7.22;;;20.20;99.90;;;;;;5086724;28;20510;-39
2023/10/11 13:27:54;;;;;;;12.75;7.78;;;20.10;99.90;;;;;;5091234;28;20076;-39
2023/10/11 13:30:22;;;;;;;12.00;7.85;;;20.00;99.90;;;;;;5068677;28;20127;-38
2023/10/11 13:32:52;;;;;;;11.20;7.55;;;20.00;99.90;;;;;;5090787;28;20047;-40
2023/10/11 13:35:19;;;;;;;10.95;7.63;;;19.90;99.90;;;;;;5088517;28;20032;-40
2023/10/11 13:37:48;;;;;;;10.95;7.75;;;19.90;99.90;;;;;;5089225;28;20509;-42
2023/10/11 13:40:16;;;;;;;12.70;7.93;;;19.90;99.90;;;;;;5087618;28;20403;-37
2023/10/11 13:42:43;;;;;;;15.32;8.68;;;19.80;99.90;;;;;;5090066;28;20084;-37
2023/10/11 13:45:16;;;;;;;11.45;7.75;;;19.80;99.90;;;;;;5084924;28;20078;-36
2023/10/11 13:47:50;;;;;;;14.05;8.68;;;19.70;99.90;;;;;;5080903;28;20044;-37
2023/10/11 13:50:26;;;;;;;13.43;8.40;;;19.70;99.90;;;;;;5084046;28;20185;-40
2023/10/11 13:52:52;;;;;;;10.07;7.97;;;19.70;99.90;;;;;;5082819;28;20041;-37
2023/10/11 13:55:23;;;;;;;12.52;7.97;;;19.90;99.90;;;;;;5086303;28;20412;-40
2023/10/11 13:57:52;;;;;;;9.23;6.72;;;20.20;99.90;;;;;;5080907;28;20510;-40